航空気象通報

ウインドサーファーのための航空気象通報による風予報です。

6/10-6/12の航空気象通報

2017年06月10日 21時22分32秒 | TAF
羽田空港
TAF RJTT 101105Z 1012/1118 01010KT 9999 FEW030
BECMG 1100/1103 10006KT
BECMG 1103/1106 17012KT
BECMG 1112/1115 36010KT
日本時間10日21時-11日09時:010度から10ノットの風
09-12時:風が変化
12時:100度から6ノットの風
12-15時:風が変化
15-21時:170度から12ノットの風
21-24時:風が変化
12日00-03時:360度から10ノットの風


静岡空港
TAF RJNS 101105Z 1012/1118 27008KT 9999 FEW030
日本時間10日21時-12日03時:270度から8ノットの風


福岡空港
TAF RJFF 101108Z 1012/1118 15007KT 8000 -RA FEW020 SCT040
TEMPO 1018/1021 4000 RA BR
BECMG 1100/1103 32011KT
BECMG 1115/1118 17003KT
日本時間10日21時-11日09時:150度から7ノットの風
09-12時:風が変化
12-24時:320度から11ノットの風
12日00-03時:風が変化
03時:170度から3ノットの風


那覇空港
TAF ROAH 101105Z 1012/1118 19014KT 9999 FEW006 SCT010
日本時間10日21時-12日03時:190度から14ノットの風


石垣空港
TAF ROIG 101106Z 1012/1118 20012KT 9999 FEW008 SCT015
日本時間10日21時-12日03時:200度から12ノットの風


マウイのカフルイ空港
PHOG 101131Z 1012/1112 05009KT P6SM VCSH FEW025 SCT050
FM101900 04016KT P6SM VCSH SCT030 BKN050
FM102300 VRB06KT 6SM -SHRA SCT030 OVC045 AMD LTD TO VIS AND WIND TIL 101600
ハワイ時間10日02-09時:050度から9ノットの風
09-13時:040度から16ノットの風
13時-11日02時:風向不定6ノットの風


サイパン空港
TAF PGSN 101121Z 1012/1112 07006KT P6SM VCSH SCT020
マリアナ時間10日22時-11日22時:070度から6ノットの風

ジャンル:
お天気
コメント   この記事についてブログを書く
この記事をはてなブックマークに追加
« 6/9-6/11の航空気象通報 | トップ | 6/12-6/14の航空気象通報 »
最近の画像もっと見る

コメントを投稿

ブログ作成者から承認されるまでコメントは反映されません。

コメント利用規約に同意の上コメント投稿を行ってください。

数字4桁を入力し、投稿ボタンを押してください。

あわせて読む

トラックバック

この記事のトラックバック  Ping-URL
ブログ作成者から承認されるまでトラックバックは反映されません。
  • 30日以上前の記事に対するトラックバックは受け取らないよう設定されております。
  • 送信元の記事内容が半角英数のみのトラックバックは受け取らないよう設定されております。
  • このブログへのリンクがない記事からのトラックバックは受け取らないよう設定されております。
  • ※ブログ管理者のみ、編集画面で設定の変更が可能です。